createdAt,value
2022-12-19T00:01:07.230Z,1.14
2022-12-19T00:03:53.908Z,1.56
2022-12-19T00:06:43.464Z,1.74
2022-12-19T00:09:28.703Z,1.61
2022-12-19T00:12:19.024Z,1.07
2022-12-19T00:15:03.189Z,1.87
2022-12-19T00:17:47.728Z,1.98
2022-12-19T00:20:31.470Z,1.79
2022-12-19T00:23:15.164Z,1.52
2022-12-19T00:26:08.291Z,1.11
2022-12-19T00:28:57.028Z,1.90
2022-12-19T00:31:41.471Z,2.25
2022-12-19T00:34:25.381Z,2.14
2022-12-19T00:37:09.118Z,2.00
2022-12-19T00:39:52.882Z,1.59
2022-12-19T00:42:36.631Z,1.08
2022-12-19T00:45:22.038Z,0.85
2022-12-19T00:48:06.106Z,1.19
2022-12-19T00:50:50.935Z,0.76
2022-12-19T00:53:34.994Z,1.10
2022-12-19T00:56:21.589Z,0.63
2022-12-19T00:59:05.432Z,0.38
2022-12-19T01:01:50.703Z,0.85
2022-12-19T01:04:39.734Z,1.02
2022-12-19T01:07:29.224Z,0.87
2022-12-19T01:10:13.024Z,0.77
2022-12-19T01:12:56.813Z,0.93
2022-12-19T01:15:41.017Z,1.04
2022-12-19T01:18:26.129Z,0.79
2022-12-19T01:21:11.844Z,1.49
2022-12-19T01:23:55.556Z,0.95
2022-12-19T01:26:39.899Z,1.36
2022-12-19T01:29:23.712Z,1.39
2022-12-19T01:32:07.545Z,1.70
2022-12-19T01:34:52.823Z,1.70
2022-12-19T01:37:36.581Z,1.24
2022-12-19T01:40:21.288Z,1.18
2022-12-19T01:43:05.584Z,1.17
2022-12-19T01:45:51.276Z,1.33
2022-12-19T01:48:40.193Z,1.42
2022-12-19T01:51:29.993Z,1.19
2022-12-19T01:54:19.852Z,1.14
2022-12-19T01:57:08.479Z,1.51
2022-12-19T01:59:55.654Z,1.79
2022-12-19T02:02:43.229Z,1.16
2022-12-19T02:05:27.304Z,1.27
2022-12-19T02:08:13.812Z,0.93
2022-12-19T02:10:57.592Z,1.25
2022-12-19T02:13:42.245Z,1.15
2022-12-19T02:16:42.209Z,1.45
2022-12-19T02:19:55.607Z,1.07
2022-12-19T02:22:54.077Z,1.61
2022-12-19T02:26:12.156Z,1.31
2022-12-19T02:29:18.530Z,1.53
2022-12-19T02:32:08.994Z,0.85
2022-12-19T02:34:59.702Z,0.65
2022-12-19T02:37:49.102Z,1.01
2022-12-19T02:40:41.175Z,0.98
2022-12-19T02:43:32.123Z,1.08
2022-12-19T02:46:18.177Z,1.11
2022-12-19T02:49:04.105Z,0.58
2022-12-19T02:51:47.944Z,0.64
2022-12-19T02:54:31.755Z,0.99
2022-12-19T02:57:25.125Z,0.81
2022-12-19T03:00:16.292Z,0.37
2022-12-19T03:03:12.052Z,0.39
2022-12-19T03:06:05.425Z,0.52
2022-12-19T03:08:55.321Z,-0.17
2022-12-19T03:11:42.400Z,0.62
2022-12-19T03:14:29.615Z,1.16
2022-12-19T03:17:13.567Z,0.58
2022-12-19T03:19:57.891Z,0.69
2022-12-19T03:22:43.142Z,0.72
2022-12-19T03:25:27.594Z,0.56
2022-12-19T03:28:17.338Z,0.82
2022-12-19T03:31:04.160Z,0.76
2022-12-19T03:33:51.770Z,0.68
2022-12-19T03:36:41.493Z,1.27
2022-12-19T03:39:27.867Z,0.00
2022-12-19T03:42:30.946Z,0.81
2022-12-19T03:45:22.056Z,0.59
2022-12-19T03:48:10.524Z,1.06
2022-12-19T03:51:04.537Z,1.24
2022-12-19T03:53:59.324Z,1.46
2022-12-19T03:56:54.285Z,1.62
2022-12-19T03:59:45.981Z,1.67
2022-12-19T04:02:37.584Z,0.92
2022-12-19T04:05:23.736Z,0.47
2022-12-19T04:08:09.367Z,0.51
2022-12-19T04:11:00.010Z,0.71
2022-12-19T04:13:48.497Z,0.56
2022-12-19T04:16:40.993Z,0.02
2022-12-19T04:19:32.152Z,0.51
2022-12-19T04:22:21.854Z,0.57
2022-12-19T04:25:09.074Z,0.39
2022-12-19T04:27:56.989Z,-0.03
2022-12-19T04:30:43.971Z,0.29
2022-12-19T04:33:27.871Z,0.23
2022-12-19T04:36:12.800Z,-0.15
2022-12-19T04:38:56.842Z,0.18
2022-12-19T04:41:40.824Z,-0.17
2022-12-19T04:44:24.724Z,-0.04
2022-12-19T04:47:09.872Z,0.05
2022-12-19T04:49:53.634Z,0.17
2022-12-19T04:52:37.325Z,0.39
2022-12-19T04:55:21.137Z,0.63
2022-12-19T04:58:06.243Z,0.29
2022-12-19T05:00:50.430Z,0.37
2022-12-19T05:03:36.178Z,0.72
2022-12-19T05:06:20.741Z,0.79
2022-12-19T05:09:05.275Z,0.35
2022-12-19T05:11:49.316Z,0.44
2022-12-19T05:14:33.389Z,-0.61
2022-12-19T05:17:17.550Z,0.02
2022-12-19T05:20:02.980Z,-0.01
2022-12-19T05:22:47.270Z,0.32
2022-12-19T05:25:31.349Z,-0.21
2022-12-19T05:28:16.007Z,-0.57
2022-12-19T05:31:08.319Z,-1.33
2022-12-19T05:33:52.302Z,-0.99
2022-12-19T05:36:37.764Z,-0.98
2022-12-19T05:39:21.664Z,-1.40
2022-12-19T05:42:09.676Z,-1.14
2022-12-19T05:44:56.084Z,-1.26
2022-12-19T05:47:39.744Z,-1.45
2022-12-19T05:50:23.582Z,-1.09
2022-12-19T05:53:09.644Z,-1.25
2022-12-19T05:55:53.452Z,-1.16
2022-12-19T05:58:37.804Z,-0.65
2022-12-19T06:01:23.795Z,-1.09
2022-12-19T06:04:07.871Z,-1.10
2022-12-19T06:06:51.723Z,-0.80
2022-12-19T06:09:37.242Z,-0.94
2022-12-19T06:12:21.044Z,-1.10
2022-12-19T06:15:05.447Z,-1.39
2022-12-19T06:17:49.208Z,-1.45
2022-12-19T06:20:33.082Z,-1.62
2022-12-19T06:23:16.957Z,-1.74
2022-12-19T06:26:03.364Z,-1.46
2022-12-19T06:28:47.246Z,-1.23
2022-12-19T06:31:31.792Z,-1.23
2022-12-19T06:34:39.469Z,-1.76
2022-12-19T06:37:19.686Z,-2.03
2022-12-19T06:40:03.586Z,-2.00
2022-12-19T06:42:49.301Z,-1.62
2022-12-19T06:45:33.083Z,-1.53
2022-12-19T06:48:16.889Z,-1.74
2022-12-19T06:51:00.783Z,-1.76
2022-12-19T06:53:44.584Z,-1.90
2022-12-19T06:56:28.551Z,-1.74
2022-12-19T06:59:16.827Z,-1.75
2022-12-19T07:02:06.550Z,-1.82
2022-12-19T07:04:52.939Z,-1.60
2022-12-19T07:07:37.221Z,-1.83
2022-12-19T07:10:20.993Z,-1.84
2022-12-19T07:13:05.525Z,-1.64
2022-12-19T07:15:52.090Z,-1.24
2022-12-19T07:18:38.136Z,-1.41
2022-12-19T07:21:22.321Z,-1.64
2022-12-19T07:24:07.991Z,-1.50
2022-12-19T07:26:52.915Z,-1.38
2022-12-19T07:29:36.727Z,-1.35
2022-12-19T07:32:22.308Z,-0.92
2022-12-19T07:35:06.911Z,-1.43
2022-12-19T07:37:51.119Z,-1.75
2022-12-19T07:40:35.602Z,-1.36
2022-12-19T07:43:19.434Z,-1.43
2022-12-19T07:46:03.468Z,-1.41
2022-12-19T07:48:49.206Z,-1.87
2022-12-19T07:51:33.534Z,-1.49
2022-12-19T07:54:17.359Z,-1.65
2022-12-19T07:57:02.497Z,-1.46
2022-12-19T07:59:46.852Z,-1.42
2022-12-19T08:02:30.780Z,-1.38
2022-12-19T08:05:16.143Z,-1.87
2022-12-19T08:07:59.830Z,-1.35
2022-12-19T08:10:43.758Z,-1.09
2022-12-19T08:13:30.064Z,-0.70
2022-12-19T08:16:17.554Z,-0.86
2022-12-19T08:19:01.365Z,-1.19
2022-12-19T08:21:46.522Z,-0.53
2022-12-19T08:24:30.981Z,-0.42
2022-12-19T08:27:14.779Z,-0.01
2022-12-19T08:29:58.650Z,-0.47
2022-12-19T08:32:42.587Z,-0.22
2022-12-19T08:35:26.305Z,-0.05
2022-12-19T08:38:11.490Z,0.02
2022-12-19T08:40:55.560Z,0.16
2022-12-19T08:43:39.735Z,0.12
2022-12-19T08:46:24.145Z,-0.14
2022-12-19T08:49:08.000Z,-0.10
2022-12-19T08:51:51.962Z,0.46
2022-12-19T08:54:37.297Z,-0.08
2022-12-19T08:57:21.067Z,0.05
2022-12-19T09:00:06.089Z,0.31
2022-12-19T09:02:51.775Z,0.51
2022-12-19T09:06:05.128Z,0.57
2022-12-19T09:08:40.126Z,0.14
2022-12-19T09:11:25.308Z,0.26
2022-12-19T09:14:09.067Z,0.28
2022-12-19T09:16:52.853Z,0.60
2022-12-19T09:19:36.831Z,1.15
2022-12-19T09:22:21.219Z,0.87
2022-12-19T09:25:11.838Z,0.40
2022-12-19T09:28:28.504Z,0.28
2022-12-19T09:31:04.370Z,0.97
2022-12-19T09:33:49.013Z,1.40
2022-12-19T09:36:32.805Z,0.85
2022-12-19T09:39:17.569Z,1.09
2022-12-19T09:42:40.445Z,0.56
2022-12-19T09:45:51.029Z,0.85
2022-12-19T09:48:34.763Z,1.37
2022-12-19T09:51:31.512Z,1.88
2022-12-19T09:54:18.572Z,1.91
2022-12-19T09:57:06.269Z,1.66
2022-12-19T09:59:55.467Z,1.71
2022-12-19T10:02:48.694Z,1.42
2022-12-19T10:06:04.631Z,1.89
2022-12-19T10:09:10.046Z,1.56
2022-12-19T10:12:45.180Z,1.93
2022-12-19T10:15:10.474Z,2.09
2022-12-19T10:18:23.067Z,1.79
2022-12-19T10:21:10.204Z,1.74
2022-12-19T10:24:06.607Z,2.01
2022-12-19T10:26:53.480Z,1.68
2022-12-19T10:30:01.352Z,1.73
2022-12-19T10:33:00.764Z,1.75
2022-12-19T10:35:49.423Z,1.68
2022-12-19T10:38:47.353Z,1.83
2022-12-19T10:41:43.723Z,1.99
2022-12-19T10:44:30.970Z,1.97
2022-12-19T10:47:18.357Z,2.16
2022-12-19T10:50:07.558Z,1.79
2022-12-19T10:52:56.981Z,2.37
2022-12-19T10:55:44.478Z,2.16
2022-12-19T10:58:30.155Z,1.89
2022-12-19T11:01:16.464Z,2.30
2022-12-19T11:04:20.055Z,2.11
2022-12-19T11:07:18.571Z,2.70
2022-12-19T11:11:40.366Z,2.23
2022-12-19T11:19:18.751Z,2.28
2022-12-19T11:20:32.651Z,2.15
2022-12-19T11:29:17.975Z,1.97
2022-12-19T11:29:25.173Z,2.10
2022-12-19T11:30:08.453Z,2.08
2022-12-19T11:31:52.921Z,2.32
2022-12-19T11:32:46.784Z,2.10
2022-12-19T11:35:36.466Z,2.22
2022-12-19T11:38:34.023Z,2.45
2022-12-19T11:41:23.777Z,1.99
2022-12-19T11:44:12.696Z,1.88
2022-12-19T11:47:04.909Z,1.76
2022-12-19T11:49:55.988Z,1.48
2022-12-19T11:55:52.733Z,1.75
2022-12-19T11:58:37.822Z,1.44
2022-12-19T12:01:40.616Z,1.58
2022-12-19T12:04:48.230Z,1.61
2022-12-19T12:08:39.276Z,1.19
2022-12-19T12:15:20.280Z,1.49
2022-12-19T12:25:48.652Z,1.84
2022-12-19T12:31:12.696Z,2.16
2022-12-19T12:31:31.783Z,1.65
2022-12-19T12:31:44.953Z,1.94
2022-12-19T12:31:49.213Z,1.90
2022-12-19T12:35:30.458Z,1.61
2022-12-19T12:35:38.456Z,1.84
2022-12-19T12:41:11.132Z,0.65
2022-12-19T12:44:07.874Z,1.04
2022-12-19T12:47:02.060Z,1.17
2022-12-19T12:49:50.279Z,1.30
2022-12-19T12:52:37.451Z,1.86
2022-12-19T12:55:27.322Z,0.85
2022-12-19T12:58:44.786Z,0.84
2022-12-19T13:01:35.498Z,1.00
2022-12-19T13:04:44.496Z,0.40
2022-12-19T13:07:35.703Z,0.75
2022-12-19T13:10:25.768Z,0.63
2022-12-19T13:13:19.791Z,0.90
2022-12-19T13:16:53.104Z,0.85
2022-12-19T13:19:40.393Z,0.56
2022-12-19T13:22:39.490Z,0.48
2022-12-19T13:25:50.563Z,0.28
2022-12-19T13:28:41.862Z,0.16
2022-12-19T13:31:25.795Z,-0.23
2022-12-19T13:34:22.280Z,-0.23
2022-12-19T13:39:49.599Z,0.16
2022-12-19T13:40:34.134Z,0.40
2022-12-19T13:43:38.009Z,0.31
2022-12-19T13:46:32.366Z,0.30
2022-12-19T13:49:20.630Z,-0.12
2022-12-19T13:52:06.183Z,-0.33
2022-12-19T13:54:53.282Z,-0.11
2022-12-19T13:57:39.740Z,-0.11
2022-12-19T14:00:32.742Z,0.28
2022-12-19T14:03:22.251Z,-0.48
2022-12-19T14:06:16.475Z,-0.65
2022-12-19T14:09:25.231Z,-0.66
2022-12-19T14:13:49.340Z,-0.96
2022-12-19T14:15:45.818Z,-0.92
2022-12-19T14:18:43.065Z,-0.97
2022-12-19T14:22:05.975Z,-0.87
2022-12-19T14:24:35.159Z,-0.78
2022-12-19T14:28:20.906Z,-1.18
2022-12-19T14:30:32.879Z,-1.05
2022-12-19T14:33:43.500Z,-1.19
2022-12-19T14:36:26.559Z,-1.61
2022-12-19T14:39:25.330Z,-1.59
2022-12-19T14:43:30.262Z,-1.45
2022-12-19T14:52:25.702Z,-1.88
2022-12-19T14:54:08.629Z,-1.51
2022-12-19T14:54:13.431Z,-1.43
2022-12-19T14:56:13.604Z,-1.50
2022-12-19T14:58:54.241Z,-0.98
2022-12-19T15:01:28.141Z,-1.63
2022-12-19T15:04:52.199Z,-1.49
2022-12-19T15:07:26.522Z,-1.41
2022-12-19T15:11:08.479Z,-1.15
2022-12-19T15:14:56.242Z,-1.57
2022-12-19T15:16:34.747Z,-1.24
2022-12-19T15:19:18.616Z,-1.27
2022-12-19T15:22:02.670Z,-1.71
2022-12-19T15:24:46.614Z,-2.13
2022-12-19T15:27:30.398Z,-2.09
2022-12-19T15:30:18.613Z,-1.83
2022-12-19T15:33:03.896Z,-1.97
2022-12-19T15:35:47.813Z,-1.97
2022-12-19T15:38:31.584Z,-2.19
2022-12-19T15:41:21.753Z,-1.88
2022-12-19T15:44:11.016Z,-1.82
2022-12-19T15:46:55.498Z,-1.89
2022-12-19T15:49:41.210Z,-2.12
2022-12-19T15:52:25.755Z,-2.09
2022-12-19T15:55:13.859Z,-2.11
2022-12-19T15:58:01.040Z,-2.06
2022-12-19T16:00:51.506Z,-1.65
2022-12-19T16:03:38.049Z,-1.62
2022-12-19T16:06:23.320Z,-1.56
2022-12-19T16:09:18.495Z,-1.67
2022-12-19T16:12:02.512Z,-1.82
2022-12-19T16:14:48.849Z,-1.55
2022-12-19T16:17:34.252Z,-1.94
2022-12-19T16:20:19.686Z,-1.45
2022-12-19T16:23:05.227Z,-1.52
2022-12-19T16:25:51.088Z,-1.86
2022-12-19T16:28:35.041Z,-1.56
2022-12-19T16:31:24.709Z,-1.49
2022-12-19T16:34:15.343Z,-1.86
2022-12-19T16:36:59.220Z,-1.99
2022-12-19T16:39:44.469Z,-1.47
2022-12-19T16:42:29.336Z,-1.41
2022-12-19T16:45:24.840Z,-1.39
2022-12-19T16:48:19.645Z,-1.67
2022-12-19T16:51:03.675Z,-1.37
2022-12-19T16:53:48.352Z,-2.54
2022-12-19T16:56:36.308Z,-3.47
2022-12-19T16:59:22.670Z,-2.19
2022-12-19T17:02:32.412Z,-2.11
2022-12-19T17:05:19.934Z,-2.02
2022-12-19T17:08:03.745Z,-1.80
2022-12-19T17:10:48.413Z,-1.52
2022-12-19T17:13:33.740Z,-1.76
2022-12-19T17:16:18.046Z,-1.46
2022-12-19T17:19:02.532Z,-1.90
2022-12-19T17:21:46.326Z,-1.91
2022-12-19T17:24:30.086Z,-1.89
2022-12-19T17:27:14.159Z,-2.03
2022-12-19T17:29:59.361Z,-1.91
2022-12-19T17:32:44.265Z,-2.20
2022-12-19T17:35:30.754Z,-2.02
2022-12-19T17:38:16.367Z,-2.60
2022-12-19T17:41:00.575Z,-2.01
2022-12-19T17:43:44.747Z,-1.99
2022-12-19T17:46:32.053Z,-1.40
2022-12-19T17:49:18.739Z,-1.69
2022-12-19T17:52:02.779Z,-1.95
2022-12-19T17:54:47.109Z,-2.04
2022-12-19T17:57:31.181Z,-2.07
2022-12-19T18:00:16.459Z,-2.31
2022-12-19T18:03:05.148Z,-1.76
2022-12-19T18:05:50.674Z,-1.85
2022-12-19T18:08:34.665Z,-1.58
2022-12-19T18:11:21.716Z,-1.44
2022-12-19T18:14:05.633Z,-1.45
2022-12-19T18:16:51.653Z,-2.21
2022-12-19T18:19:36.959Z,-1.99
2022-12-19T18:22:22.143Z,-2.11
2022-12-19T18:25:16.650Z,-2.05
2022-12-19T18:28:00.463Z,-2.11
2022-12-19T18:30:45.424Z,-2.53
2022-12-19T18:33:34.593Z,-2.60
2022-12-19T18:36:22.672Z,-3.11
2022-12-19T18:39:18.889Z,-2.56
2022-12-19T18:42:02.724Z,-2.45
2022-12-19T18:44:46.468Z,-2.55
2022-12-19T18:47:30.258Z,-2.54
2022-12-19T18:50:20.746Z,-2.86
2022-12-19T18:53:11.791Z,-2.81
2022-12-19T18:55:55.684Z,-2.77
2022-12-19T18:58:39.640Z,-2.77
2022-12-19T19:01:23.495Z,-2.72
2022-12-19T19:04:07.496Z,-2.84
2022-12-19T19:06:52.643Z,-2.60
2022-12-19T19:09:38.055Z,-2.59
2022-12-19T19:12:42.650Z,-2.70
2022-12-19T19:15:29.835Z,-2.53
2022-12-19T19:18:13.892Z,-2.54
2022-12-19T19:21:01.234Z,-2.42
2022-12-19T19:23:49.517Z,-2.53
2022-12-19T19:26:34.720Z,-2.67
2022-12-19T19:29:19.799Z,-2.73
2022-12-19T19:32:03.761Z,-2.81
2022-12-19T19:34:47.706Z,-2.60
2022-12-19T19:37:31.457Z,-3.19
2022-12-19T19:40:15.889Z,-3.22
2022-12-19T19:43:01.004Z,-2.88
2022-12-19T19:45:45.157Z,-2.77
2022-12-19T19:48:29.118Z,-2.81
2022-12-19T19:51:16.402Z,-2.79
2022-12-19T19:54:00.189Z,-2.66
2022-12-19T19:56:43.976Z,-2.49
2022-12-19T19:59:31.923Z,-2.54
2022-12-19T20:02:16.908Z,-2.66
2022-12-19T20:05:01.295Z,-2.35
2022-12-19T20:07:45.522Z,-2.40
2022-12-19T20:10:29.232Z,-2.50
2022-12-19T20:13:13.027Z,-2.50
2022-12-19T20:16:04.386Z,-2.76
2022-12-19T20:18:49.876Z,-2.75
2022-12-19T20:21:33.753Z,-2.64
2022-12-19T20:24:17.611Z,-2.80
2022-12-19T20:27:01.337Z,-2.66
2022-12-19T20:29:45.461Z,-2.70
2022-12-19T20:32:31.095Z,-2.63
2022-12-19T20:35:16.212Z,-2.58
2022-12-19T20:37:59.944Z,-2.68
2022-12-19T20:40:44.303Z,-2.73
2022-12-19T20:43:28.118Z,-2.61
2022-12-19T20:46:14.080Z,-2.61
2022-12-19T20:49:00.114Z,-2.24
2022-12-19T20:51:44.439Z,-1.88
2022-12-19T20:54:28.289Z,-1.87
2022-12-19T20:57:12.083Z,-1.87
2022-12-19T20:59:55.769Z,-1.65
2022-12-19T21:03:16.907Z,-1.65
2022-12-19T21:05:44.847Z,-1.81
2022-12-19T21:08:29.251Z,-1.57
2022-12-19T21:11:14.019Z,-1.68
2022-12-19T21:13:57.986Z,-2.06
2022-12-19T21:16:41.840Z,-1.98
2022-12-19T21:19:25.723Z,-1.99
2022-12-19T21:22:11.077Z,-2.31
2022-12-19T21:24:54.853Z,-1.90
2022-12-19T21:27:38.639Z,-1.91
2022-12-19T21:30:22.470Z,-1.78
2022-12-19T21:33:06.467Z,-1.87
2022-12-19T21:35:50.096Z,-1.59
2022-12-19T21:38:35.390Z,-1.73
2022-12-19T21:41:19.746Z,-1.88
2022-12-19T21:44:03.534Z,-2.13
2022-12-19T21:46:47.307Z,-2.02
2022-12-19T21:49:31.205Z,-1.94
2022-12-19T21:52:15.088Z,-1.98
2022-12-19T21:55:00.313Z,-2.09
2022-12-19T21:57:44.178Z,-2.49
2022-12-19T22:00:28.045Z,-2.13
2022-12-19T22:03:14.763Z,-2.12
2022-12-19T22:05:59.414Z,-2.14
2022-12-19T22:08:43.579Z,-2.04
2022-12-19T22:11:29.967Z,-3.10
2022-12-19T22:14:15.186Z,-1.87
2022-12-19T22:16:59.034Z,-2.02
2022-12-19T22:19:42.902Z,-1.88
2022-12-19T22:22:26.732Z,-1.80
2022-12-19T22:25:11.062Z,-1.72
2022-12-19T22:27:57.806Z,-1.91
2022-12-19T22:30:41.631Z,-2.29
2022-12-19T22:33:25.455Z,-2.08
2022-12-19T22:36:11.770Z,-1.98
2022-12-19T22:39:00.387Z,-2.15
2022-12-19T22:41:44.288Z,-1.94
2022-12-19T22:44:29.445Z,-2.11
2022-12-19T22:47:13.127Z,-2.02
2022-12-19T22:49:56.923Z,-2.07
2022-12-19T22:52:40.759Z,-3.28
2022-12-19T22:55:24.485Z,-2.21
2022-12-19T22:58:08.452Z,-2.20
2022-12-19T23:00:53.602Z,-1.87
2022-12-19T23:03:37.531Z,-1.96
2022-12-19T23:06:22.588Z,-2.13
2022-12-19T23:09:07.715Z,-2.16
2022-12-19T23:11:51.563Z,-2.21
2022-12-19T23:14:35.366Z,-2.36
2022-12-19T23:17:20.523Z,-2.42
2022-12-19T23:20:04.802Z,-2.40
2022-12-19T23:22:48.786Z,-2.21
2022-12-19T23:25:32.631Z,-1.99
2022-12-19T23:28:16.259Z,-2.10
2022-12-19T23:31:06.895Z,-2.08
2022-12-19T23:33:52.665Z,-1.92
2022-12-19T23:39:40.089Z,-1.97
2022-12-19T23:42:23.839Z,-2.14
2022-12-19T23:45:08.998Z,-2.12
2022-12-19T23:47:52.735Z,-2.13
2022-12-19T23:50:37.857Z,-2.36
2022-12-19T23:53:21.645Z,-2.09
2022-12-19T23:56:08.375Z,-2.21
2022-12-19T23:58:52.195Z,-1.99
